Gray, Iowa
Current Conditions -  °F | °C
As of 10:15 AM on Friday 19 Dec 2014 (Local Time) from KADU Reporting Station
Haze Haze  
Wind Chill: 25°   Ceiling: Unl
Heat Index: 30°   Visibility: 3mi
Dew Point: 25°   Wind: 5mph
Humidity: 80%   Direction: 180°S
Pressure: 30.25"   Gusts: NA
Location:  41.84°N, 94.98°W
Report Text: KADU 191615Z AUTO 18004KT 3SM HZ SCT005 M01/M04 A3025 RMK AO2
Loading
Personal Weather Stations






























Interactive Weather Map New forecast layout! Learn more

10-Day Weather Forecast

Advertisements
Track Severe Weather on mobile